createdAt,value
2023-01-29T00:01:57.320Z,24.98
2023-01-29T00:04:24.502Z,23.92
2023-01-29T00:06:51.203Z,19.70
2023-01-29T00:09:18.265Z,21.73
2023-01-29T00:11:45.031Z,23.02
2023-01-29T00:14:11.870Z,23.85
2023-01-29T00:16:38.690Z,22.52
2023-01-29T00:19:05.484Z,26.60
2023-01-29T00:21:32.271Z,22.92
2023-01-29T00:23:59.918Z,20.48
2023-01-29T00:26:27.699Z,24.52
2023-01-29T00:28:57.098Z,22.35
2023-01-29T00:31:25.244Z,23.75
2023-01-29T00:33:52.356Z,20.70
2023-01-29T00:36:21.518Z,21.23
2023-01-29T00:38:58.509Z,21.88
2023-01-29T00:41:48.932Z,21.70
2023-01-29T00:44:34.903Z,21.40
2023-01-29T00:47:02.178Z,21.00
2023-01-29T00:49:30.271Z,23.70
2023-01-29T00:52:17.152Z,22.45
2023-01-29T00:54:43.868Z,21.83
2023-01-29T00:57:10.655Z,19.80
2023-01-29T00:59:37.686Z,19.92
2023-01-29T01:02:23.087Z,19.70
2023-01-29T01:04:49.779Z,20.52
2023-01-29T01:07:16.423Z,20.27
2023-01-29T01:10:01.448Z,20.30
2023-01-29T01:12:28.775Z,21.30
2023-01-29T01:14:55.530Z,19.05
2023-01-29T01:17:22.802Z,19.85
2023-01-29T01:19:49.712Z,21.67
2023-01-29T01:22:16.527Z,20.25
2023-01-29T01:24:44.048Z,18.15
2023-01-29T01:27:10.866Z,17.42
2023-01-29T01:29:37.928Z,18.63
2023-01-29T01:32:06.127Z,18.77
2023-01-29T01:34:33.053Z,18.83
2023-01-29T01:37:00.931Z,19.52
2023-01-29T01:39:27.857Z,18.95
2023-01-29T01:41:55.043Z,18.85
2023-01-29T01:45:10.201Z,19.42
2023-01-29T01:47:48.919Z,20.27
2023-01-29T01:50:22.565Z,18.42
2023-01-29T01:52:53.108Z,20.08
2023-01-29T01:55:24.386Z,19.80
2023-01-29T01:57:55.003Z,18.73
2023-01-29T02:00:24.631Z,19.85
2023-01-29T02:03:09.791Z,22.13
2023-01-29T02:05:55.933Z,22.27
2023-01-29T02:09:10.313Z,21.05
2023-01-29T02:11:37.867Z,21.02
2023-01-29T02:14:04.645Z,21.70
2023-01-29T02:16:35.055Z,21.65
2023-01-29T02:19:06.168Z,23.52
2023-01-29T02:21:46.418Z,22.77
2023-01-29T02:24:44.521Z,26.83
2023-01-29T02:27:16.695Z,23.20
2023-01-29T02:29:59.828Z,21.35
2023-01-29T02:32:54.169Z,22.75
2023-01-29T02:35:41.333Z,25.60
2023-01-29T02:38:27.289Z,24.20
2023-01-29T02:40:56.909Z,22.48
2023-01-29T02:43:43.340Z,23.08
2023-01-29T02:46:34.952Z,25.48
2023-01-29T02:49:25.621Z,23.27
2023-01-29T02:51:58.431Z,21.52
2023-01-29T02:54:33.553Z,23.95
2023-01-29T02:57:08.866Z,24.10
2023-01-29T02:59:43.298Z,22.63
2023-01-29T03:02:16.456Z,25.08
2023-01-29T03:04:48.159Z,23.58
2023-01-29T03:07:41.266Z,26.02
2023-01-29T03:10:28.519Z,25.30
2023-01-29T03:13:20.618Z,24.67
2023-01-29T03:15:54.813Z,25.63
2023-01-29T03:18:46.805Z,23.83
2023-01-29T03:21:41.005Z,25.88
2023-01-29T03:24:32.094Z,21.60
2023-01-29T03:27:22.762Z,23.33
2023-01-29T03:30:11.702Z,21.02
2023-01-29T03:32:55.488Z,24.10
2023-01-29T03:35:37.541Z,23.98
2023-01-29T03:38:10.037Z,21.75
2023-01-29T03:40:50.871Z,21.90
2023-01-29T03:43:53.073Z,23.33
2023-01-29T03:46:48.146Z,24.15
2023-01-29T03:49:35.034Z,24.25
2023-01-29T03:52:19.681Z,23.20
2023-01-29T03:54:57.777Z,22.85
2023-01-29T03:57:40.755Z,24.35
2023-01-29T04:00:18.084Z,28.58
2023-01-29T04:03:08.096Z,23.77
2023-01-29T04:05:44.551Z,24.10
2023-01-29T04:08:26.146Z,20.77
2023-01-29T04:10:57.365Z,25.92
2023-01-29T04:13:24.894Z,24.42
2023-01-29T04:15:56.677Z,26.35
2023-01-29T04:18:50.785Z,26.17
2023-01-29T04:21:22.615Z,20.77
2023-01-29T04:23:49.246Z,26.48
2023-01-29T04:26:42.078Z,20.50
2023-01-29T04:29:30.368Z,22.33
2023-01-29T04:32:24.737Z,24.80
2023-01-29T04:34:51.897Z,26.75
2023-01-29T04:37:40.138Z,24.67
2023-01-29T04:40:16.280Z,22.70
2023-01-29T04:42:59.208Z,23.38
2023-01-29T04:45:44.985Z,25.55
2023-01-29T04:48:23.782Z,23.08
2023-01-29T04:51:11.586Z,23.20
2023-01-29T04:54:12.009Z,26.10
2023-01-29T04:59:30.949Z,26.80
2023-01-29T05:02:00.864Z,26.17
2023-01-29T05:04:29.675Z,26.50
2023-01-29T05:06:56.789Z,26.23
2023-01-29T05:09:25.129Z,24.55
2023-01-29T05:11:52.367Z,26.08
2023-01-29T05:14:20.934Z,26.25
2023-01-29T05:16:52.732Z,27.90
2023-01-29T05:19:19.563Z,26.13
2023-01-29T05:21:49.052Z,23.55
2023-01-29T05:24:22.081Z,23.17
2023-01-29T05:27:10.529Z,26.42
2023-01-29T05:29:37.492Z,27.00
2023-01-29T05:32:04.291Z,27.55
2023-01-29T05:34:31.013Z,27.35
2023-01-29T05:36:57.708Z,27.40
2023-01-29T05:39:24.443Z,25.13
2023-01-29T05:41:51.124Z,29.33
2023-01-29T05:44:17.768Z,29.33
2023-01-29T05:46:44.982Z,30.40
2023-01-29T05:49:12.669Z,29.92
2023-01-29T05:51:39.393Z,25.95
2023-01-29T05:54:06.141Z,26.65
2023-01-29T05:56:32.789Z,26.83
2023-01-29T05:58:59.687Z,26.52
2023-01-29T06:01:26.479Z,26.30
2023-01-29T06:03:53.182Z,25.80
2023-01-29T06:06:20.029Z,27.55
2023-01-29T06:08:47.527Z,25.80
2023-01-29T06:11:15.083Z,25.63
2023-01-29T06:13:41.991Z,24.67
2023-01-29T06:16:11.531Z,27.23
2023-01-29T06:18:39.347Z,24.75
2023-01-29T06:21:08.407Z,22.77
2023-01-29T06:23:35.085Z,23.50
2023-01-29T06:26:06.597Z,26.70
2023-01-29T06:28:33.280Z,24.90
2023-01-29T06:31:21.074Z,25.33
2023-01-29T06:33:48.993Z,24.80
2023-01-29T06:36:15.702Z,24.92
2023-01-29T06:38:42.348Z,24.40
2023-01-29T06:41:13.926Z,28.98
2023-01-29T06:43:43.597Z,27.15
2023-01-29T06:46:10.384Z,26.50
2023-01-29T06:48:37.080Z,27.48
2023-01-29T06:51:05.404Z,26.00
2023-01-29T06:53:33.439Z,25.58
2023-01-29T06:56:00.162Z,23.27
2023-01-29T06:58:27.004Z,25.00
2023-01-29T07:00:53.733Z,27.30
2023-01-29T07:03:20.621Z,26.33
2023-01-29T07:05:52.425Z,24.50
2023-01-29T07:08:22.590Z,26.65
2023-01-29T07:10:50.354Z,25.98
2023-01-29T07:13:17.365Z,24.30
2023-01-29T07:15:44.548Z,24.48
2023-01-29T07:18:14.194Z,25.73
2023-01-29T07:20:42.310Z,25.95
2023-01-29T07:23:15.639Z,28.95
2023-01-29T07:25:42.433Z,30.27
2023-01-29T07:28:09.230Z,24.40
2023-01-29T07:30:36.260Z,29.77
2023-01-29T07:33:07.159Z,27.80
2023-01-29T07:35:42.604Z,25.88
2023-01-29T07:38:10.831Z,28.15
2023-01-29T07:40:37.495Z,26.65
2023-01-29T07:43:06.986Z,24.98
2023-01-29T07:45:36.103Z,26.80
2023-01-29T07:48:04.929Z,27.85
2023-01-29T07:50:33.326Z,31.15
2023-01-29T07:53:00.314Z,31.42
2023-01-29T07:55:27.187Z,29.35
2023-01-29T07:57:57.578Z,30.33
2023-01-29T08:00:24.462Z,27.15
2023-01-29T08:02:51.359Z,32.45
2023-01-29T08:05:18.402Z,27.23
2023-01-29T08:07:49.357Z,31.50
2023-01-29T08:10:24.238Z,30.23
2023-01-29T08:12:58.888Z,27.50
2023-01-29T08:15:26.277Z,30.00
2023-01-29T08:20:40.748Z,28.50
2023-01-29T08:23:12.389Z,30.48
2023-01-29T08:25:39.187Z,27.88
2023-01-29T08:28:06.148Z,29.08
2023-01-29T08:30:34.148Z,26.23
2023-01-29T08:33:02.757Z,28.40
2023-01-29T08:35:29.447Z,27.80
2023-01-29T08:37:59.378Z,33.47
2023-01-29T08:40:27.769Z,29.98
2023-01-29T08:43:03.099Z,29.40
2023-01-29T08:45:34.546Z,29.00
2023-01-29T08:48:01.888Z,26.10
2023-01-29T08:50:30.611Z,25.55
2023-01-29T08:52:59.194Z,25.25
2023-01-29T08:55:26.860Z,24.00
2023-01-29T08:57:53.677Z,26.30
2023-01-29T09:00:20.845Z,25.52
2023-01-29T09:02:47.535Z,29.60
2023-01-29T09:05:15.033Z,26.55
2023-01-29T09:07:42.050Z,30.65
2023-01-29T09:10:10.354Z,30.30
2023-01-29T09:12:37.132Z,27.92
2023-01-29T09:15:04.120Z,27.27
2023-01-29T09:17:30.871Z,27.60
2023-01-29T09:19:58.578Z,24.85
2023-01-29T09:22:25.272Z,25.55
2023-01-29T09:24:51.979Z,29.00
2023-01-29T09:27:18.589Z,28.70
2023-01-29T09:29:45.272Z,26.35
2023-01-29T09:32:12.031Z,31.02
2023-01-29T09:34:38.674Z,32.33
2023-01-29T09:37:05.535Z,27.77
2023-01-29T09:39:32.285Z,28.27
2023-01-29T09:42:01.763Z,27.15
2023-01-29T09:44:49.065Z,29.88
2023-01-29T09:47:18.083Z,28.73
2023-01-29T09:49:53.560Z,29.42
2023-01-29T09:52:27.972Z,37.83
2023-01-29T09:55:00.418Z,35.75
2023-01-29T09:57:48.359Z,34.15
2023-01-29T10:00:18.773Z,29.77
2023-01-29T10:03:08.314Z,27.95
2023-01-29T10:05:43.949Z,34.88
2023-01-29T10:08:23.725Z,29.98
2023-01-29T10:10:59.369Z,32.17
2023-01-29T10:13:46.009Z,36.13
2023-01-29T10:16:53.936Z,31.75
2023-01-29T10:19:29.376Z,31.30
2023-01-29T10:22:27.632Z,28.65
2023-01-29T10:25:04.456Z,25.90
2023-01-29T10:27:39.075Z,31.80
2023-01-29T10:30:33.025Z,30.42
2023-01-29T10:33:03.357Z,29.70
2023-01-29T10:35:41.239Z,30.17
2023-01-29T10:38:39.997Z,30.65
2023-01-29T10:41:21.736Z,32.78
2023-01-29T10:43:57.903Z,32.50
2023-01-29T10:46:40.248Z,29.13
2023-01-29T10:49:13.684Z,30.20
2023-01-29T10:51:46.642Z,37.75
2023-01-29T10:54:45.405Z,27.13
2023-01-29T10:57:40.027Z,29.70
2023-01-29T11:00:19.126Z,32.40
2023-01-29T11:02:48.566Z,27.08
2023-01-29T11:05:33.475Z,31.52
2023-01-29T11:08:08.569Z,31.25
2023-01-29T11:10:44.393Z,31.80
2023-01-29T11:13:14.981Z,38.90
2023-01-29T11:15:41.736Z,30.33
2023-01-29T11:18:13.619Z,33.40
2023-01-29T11:20:42.080Z,33.15
2023-01-29T11:23:32.652Z,31.55
2023-01-29T11:26:00.536Z,30.17
2023-01-29T11:28:45.230Z,31.40
2023-01-29T11:31:16.668Z,34.95
2023-01-29T11:33:44.078Z,31.17
2023-01-29T11:36:34.196Z,27.15
2023-01-29T11:39:20.657Z,31.80
2023-01-29T11:41:50.240Z,27.45
2023-01-29T11:44:43.308Z,30.02
2023-01-29T11:47:30.189Z,30.23
2023-01-29T11:50:00.323Z,34.65
2023-01-29T11:52:38.588Z,29.25
2023-01-29T11:55:40.942Z,30.55
2023-01-29T11:58:29.802Z,28.83
2023-01-29T12:00:58.379Z,28.92
2023-01-29T12:03:30.999Z,29.60
2023-01-29T12:06:05.796Z,29.85
2023-01-29T12:08:37.557Z,28.10
2023-01-29T12:11:24.285Z,24.70
2023-01-29T12:13:55.595Z,30.02
2023-01-29T12:16:54.131Z,34.00
2023-01-29T12:19:47.827Z,33.90
2023-01-29T12:22:23.441Z,30.48
2023-01-29T12:25:01.913Z,32.63
2023-01-29T12:27:46.308Z,29.02
2023-01-29T12:31:04.121Z,33.15
2023-01-29T12:33:55.617Z,34.92
2023-01-29T12:36:47.101Z,29.05
2023-01-29T12:39:16.844Z,28.88
2023-01-29T12:42:13.782Z,31.95
2023-01-29T12:44:59.425Z,29.98
2023-01-29T12:47:40.630Z,29.20
2023-01-29T12:50:33.651Z,29.45
2023-01-29T12:53:26.548Z,29.23
2023-01-29T12:55:59.155Z,28.27
2023-01-29T12:58:29.708Z,36.28
2023-01-29T13:01:03.870Z,34.92
2023-01-29T13:03:43.032Z,30.50
2023-01-29T13:06:14.640Z,29.15
2023-01-29T13:08:43.077Z,28.35
2023-01-29T13:11:15.941Z,32.33
2023-01-29T13:13:55.189Z,35.03
2023-01-29T13:16:25.900Z,29.48
2023-01-29T13:19:06.357Z,31.92
2023-01-29T13:21:42.164Z,28.35
2023-01-29T13:24:16.388Z,30.65
2023-01-29T13:26:48.470Z,27.23
2023-01-29T13:29:26.456Z,31.65
2023-01-29T13:31:55.635Z,28.63
2023-01-29T13:34:28.387Z,33.50
2023-01-29T13:36:58.261Z,33.97
2023-01-29T13:39:31.130Z,32.78
2023-01-29T13:41:59.933Z,31.30
2023-01-29T13:44:35.800Z,29.52
2023-01-29T13:47:11.734Z,27.33
2023-01-29T13:49:47.628Z,31.38
2023-01-29T13:52:35.744Z,33.50
2023-01-29T13:55:05.877Z,31.67
2023-01-29T13:57:55.961Z,32.10
2023-01-29T14:00:24.326Z,34.38
2023-01-29T14:02:56.755Z,33.00
2023-01-29T14:05:33.852Z,36.17
2023-01-29T14:08:09.570Z,32.35
2023-01-29T14:10:37.555Z,28.90
2023-01-29T14:13:04.202Z,30.70
2023-01-29T14:15:34.402Z,33.05
2023-01-29T14:18:05.686Z,31.95
2023-01-29T14:20:45.983Z,33.28
2023-01-29T14:23:35.964Z,35.90
2023-01-29T14:26:05.505Z,35.20
2023-01-29T14:28:34.665Z,30.58
2023-01-29T14:31:02.659Z,35.10
2023-01-29T14:33:36.927Z,34.80
2023-01-29T14:36:12.287Z,34.70
2023-01-29T14:38:46.275Z,37.67
2023-01-29T14:41:32.592Z,33.90
2023-01-29T14:44:36.704Z,38.53
2023-01-29T14:47:04.672Z,34.17
2023-01-29T14:49:57.414Z,34.58
2023-01-29T14:52:35.785Z,33.45
2023-01-29T14:55:06.742Z,32.13
2023-01-29T14:57:34.359Z,34.10
2023-01-29T15:00:05.312Z,32.17
2023-01-29T15:02:43.411Z,35.15
2023-01-29T15:05:22.344Z,31.95
2023-01-29T15:07:56.954Z,31.63
2023-01-29T15:10:40.040Z,32.90
2023-01-29T15:13:16.080Z,31.52
2023-01-29T15:16:06.186Z,30.30
2023-01-29T15:18:43.245Z,31.58
2023-01-29T15:21:15.191Z,31.00
2023-01-29T15:23:44.040Z,33.60
2023-01-29T15:26:15.817Z,33.25
2023-01-29T15:28:45.145Z,34.17
2023-01-29T15:31:17.999Z,34.58
2023-01-29T15:33:48.202Z,36.45
2023-01-29T15:36:21.815Z,38.72
2023-01-29T15:38:48.562Z,35.83
2023-01-29T15:41:20.734Z,36.58
2023-01-29T15:43:49.737Z,33.85
2023-01-29T15:46:27.812Z,36.97
2023-01-29T15:48:57.453Z,34.05
2023-01-29T15:51:26.207Z,36.17
2023-01-29T15:53:59.774Z,36.50
2023-01-29T15:56:38.171Z,38.72
2023-01-29T15:59:09.651Z,39.45
2023-01-29T16:01:36.723Z,37.50
2023-01-29T16:04:04.266Z,38.55
2023-01-29T16:06:38.624Z,35.85
2023-01-29T16:09:07.169Z,39.53
2023-01-29T16:11:35.278Z,37.05
2023-01-29T16:14:03.645Z,35.08
2023-01-29T16:16:30.590Z,37.08
2023-01-29T16:19:00.741Z,33.20
2023-01-29T16:21:39.763Z,35.05
2023-01-29T16:24:15.924Z,37.28
2023-01-29T16:26:46.246Z,33.72
2023-01-29T16:29:23.895Z,38.58
2023-01-29T16:31:54.237Z,34.08
2023-01-29T16:34:38.866Z,39.78
2023-01-29T16:37:16.997Z,36.33
2023-01-29T16:39:47.156Z,40.20
2023-01-29T16:42:17.337Z,39.90
2023-01-29T16:44:56.178Z,38.55
2023-01-29T16:47:33.505Z,36.70
2023-01-29T16:50:04.529Z,39.55
2023-01-29T16:52:35.010Z,35.28
2023-01-29T16:55:15.700Z,35.40
2023-01-29T16:57:47.538Z,37.20
2023-01-29T17:00:29.787Z,43.00
2023-01-29T17:03:07.489Z,38.60
2023-01-29T17:05:36.761Z,37.38
2023-01-29T17:08:04.646Z,34.90
2023-01-29T17:10:32.652Z,37.25
2023-01-29T17:13:10.086Z,40.78
2023-01-29T17:15:46.066Z,38.58
2023-01-29T17:18:22.979Z,44.05
2023-01-29T17:20:50.383Z,38.47
2023-01-29T17:23:17.027Z,37.03
2023-01-29T17:25:44.477Z,39.60
2023-01-29T17:28:16.045Z,40.63
2023-01-29T17:30:44.851Z,37.67
2023-01-29T17:33:22.635Z,35.92
2023-01-29T17:35:50.173Z,41.53
2023-01-29T17:38:26.047Z,43.78
2023-01-29T17:40:59.854Z,41.03
2023-01-29T17:43:26.742Z,43.65
2023-01-29T17:45:53.677Z,40.08
2023-01-29T17:48:26.474Z,35.03
2023-01-29T17:50:58.831Z,38.50
2023-01-29T17:53:30.498Z,34.92
2023-01-29T17:56:04.541Z,37.35
2023-01-29T17:58:31.202Z,40.15
2023-01-29T18:00:57.898Z,35.92
2023-01-29T18:03:26.482Z,32.78
2023-01-29T18:05:53.184Z,31.80
2023-01-29T18:08:26.366Z,33.80
2023-01-29T18:10:53.057Z,38.33
2023-01-29T18:13:19.749Z,37.35
2023-01-29T18:15:46.487Z,36.33
2023-01-29T18:18:19.488Z,29.92
2023-01-29T18:20:46.629Z,37.10
2023-01-29T18:23:13.499Z,32.97
2023-01-29T18:25:40.241Z,36.00
2023-01-29T18:28:07.212Z,30.98
2023-01-29T18:30:34.110Z,32.10
2023-01-29T18:33:00.953Z,33.22
2023-01-29T18:35:27.913Z,31.80
2023-01-29T18:37:55.147Z,31.92
2023-01-29T18:40:21.922Z,30.27
2023-01-29T18:42:48.643Z,34.72
2023-01-29T18:45:16.575Z,31.05
2023-01-29T18:47:43.879Z,33.28
2023-01-29T18:50:11.689Z,34.42
2023-01-29T18:52:38.450Z,34.40
2023-01-29T18:55:05.492Z,33.15
2023-01-29T18:58:26.146Z,31.58
2023-01-29T19:00:20.393Z,33.53
2023-01-29T19:02:47.271Z,33.28
2023-01-29T19:05:14.391Z,32.35
2023-01-29T19:07:41.251Z,35.63
2023-01-29T19:10:12.373Z,31.45
2023-01-29T19:12:42.406Z,32.92
2023-01-29T19:15:11.368Z,34.70
2023-01-29T19:17:38.854Z,31.52
2023-01-29T19:20:05.994Z,34.78
2023-01-29T19:22:32.660Z,31.08
2023-01-29T19:24:59.476Z,33.53
2023-01-29T19:27:30.169Z,27.52
2023-01-29T19:29:59.908Z,29.60
2023-01-29T19:32:28.734Z,28.77
2023-01-29T19:34:55.497Z,29.10
2023-01-29T19:37:22.230Z,30.65
2023-01-29T19:39:48.972Z,29.15
2023-01-29T19:42:15.794Z,29.90
2023-01-29T19:44:42.604Z,32.60
2023-01-29T19:47:09.299Z,31.05
2023-01-29T19:49:35.952Z,31.98
2023-01-29T19:52:02.973Z,30.95
2023-01-29T19:54:30.195Z,29.85
2023-01-29T19:56:57.041Z,29.20
2023-01-29T19:59:23.833Z,28.48
2023-01-29T20:01:50.785Z,31.45
2023-01-29T20:04:17.613Z,27.55
2023-01-29T20:06:44.548Z,32.55
2023-01-29T20:09:11.418Z,30.10
2023-01-29T20:11:38.120Z,29.33
2023-01-29T20:14:04.779Z,31.13
2023-01-29T20:16:31.467Z,31.05
2023-01-29T20:19:13.716Z,29.25
2023-01-29T20:21:42.151Z,35.17
2023-01-29T20:24:12.114Z,33.17
2023-01-29T20:26:38.960Z,29.60
2023-01-29T20:29:06.342Z,30.77
2023-01-29T20:31:33.046Z,34.45
2023-01-29T20:33:59.731Z,31.35
2023-01-29T20:36:26.492Z,31.77
2023-01-29T20:38:53.286Z,26.90
2023-01-29T20:41:21.037Z,31.00
2023-01-29T20:43:50.039Z,30.77
2023-01-29T20:46:17.047Z,28.95
2023-01-29T20:48:43.775Z,25.75
2023-01-29T20:51:16.096Z,35.88
2023-01-29T20:53:45.356Z,29.48
2023-01-29T20:56:13.478Z,25.90
2023-01-29T20:58:43.003Z,30.13
2023-01-29T21:01:11.604Z,28.80
2023-01-29T21:03:39.657Z,30.65
2023-01-29T21:06:08.361Z,26.38
2023-01-29T21:08:36.235Z,27.98
2023-01-29T21:11:03.872Z,30.40
2023-01-29T21:13:30.871Z,30.95
2023-01-29T21:15:58.009Z,26.35
2023-01-29T21:18:26.207Z,27.25
2023-01-29T21:20:53.537Z,29.20
2023-01-29T21:23:20.699Z,25.27
2023-01-29T21:25:48.103Z,30.00
2023-01-29T21:28:15.886Z,29.00
2023-01-29T21:30:42.789Z,26.85
2023-01-29T21:33:09.559Z,26.08
2023-01-29T21:35:37.704Z,27.30
2023-01-29T21:38:04.872Z,31.17
2023-01-29T21:40:31.701Z,29.38
2023-01-29T21:43:15.321Z,30.55
2023-01-29T21:45:42.737Z,29.75
2023-01-29T21:48:11.758Z,28.98
2023-01-29T21:50:39.113Z,27.70
2023-01-29T21:53:05.889Z,28.08
2023-01-29T21:55:32.863Z,33.15
2023-01-29T21:58:00.294Z,29.23
2023-01-29T22:00:27.414Z,31.17
2023-01-29T22:02:54.167Z,34.10
2023-01-29T22:05:20.951Z,31.00
2023-01-29T22:07:48.537Z,34.03
2023-01-29T22:10:17.356Z,33.83
2023-01-29T22:12:44.871Z,32.03
2023-01-29T22:15:12.403Z,27.75
2023-01-29T22:17:41.187Z,27.50
2023-01-29T22:20:13.465Z,28.48
2023-01-29T22:22:40.230Z,28.50
2023-01-29T22:25:07.309Z,29.50
2023-01-29T22:27:34.406Z,27.25
2023-01-29T22:30:01.158Z,32.08
2023-01-29T22:32:28.924Z,28.35
2023-01-29T22:34:55.605Z,32.35
2023-01-29T22:37:22.443Z,31.00
2023-01-29T22:39:49.132Z,29.65
2023-01-29T22:42:18.124Z,32.00
2023-01-29T22:44:44.732Z,28.23
2023-01-29T22:47:12.253Z,25.95
2023-01-29T22:49:38.895Z,30.52
2023-01-29T22:52:12.498Z,30.58
2023-01-29T22:54:41.041Z,30.67
2023-01-29T22:57:12.463Z,27.60
2023-01-29T22:59:39.482Z,32.45
2023-01-29T23:02:07.329Z,32.40
2023-01-29T23:04:34.106Z,28.60
2023-01-29T23:07:00.846Z,25.92
2023-01-29T23:09:27.550Z,29.95
2023-01-29T23:11:54.452Z,33.72
2023-01-29T23:14:21.110Z,31.67
2023-01-29T23:16:47.756Z,28.48
2023-01-29T23:19:14.464Z,27.58
2023-01-29T23:21:41.093Z,27.90
2023-01-29T23:24:08.614Z,28.80
2023-01-29T23:26:53.777Z,30.02
2023-01-29T23:29:20.880Z,26.73
2023-01-29T23:31:47.668Z,25.15
2023-01-29T23:34:14.999Z,27.58
2023-01-29T23:36:41.989Z,30.30
2023-01-29T23:39:08.912Z,27.45
2023-01-29T23:41:35.817Z,30.60
2023-01-29T23:44:02.620Z,30.70
2023-01-29T23:46:29.525Z,31.92
2023-01-29T23:48:56.221Z,34.72
2023-01-29T23:51:23.055Z,35.67
2023-01-29T23:53:49.679Z,38.30
2023-01-29T23:56:16.397Z,29.65
2023-01-29T23:58:43.870Z,32.30
